sensor_id;sensor_type;location;lat;lon;timestamp;P1;durP1;ratioP1;P2;durP2;ratioP2
38603;SDS011;24924;50.054;8.790;2022-07-22T05:02:40;13.07;;;7.77;;
38603;SDS011;24924;50.054;8.790;2022-07-22T05:05:05;11.30;;;7.15;;
38603;SDS011;24924;50.054;8.790;2022-07-22T05:07:31;11.30;;;7.88;;
38603;SDS011;24924;50.054;8.790;2022-07-22T05:09:57;12.33;;;8.87;;
38603;SDS011;24924;50.054;8.790;2022-07-22T05:12:23;12.27;;;8.53;;
38603;SDS011;24924;50.054;8.790;2022-07-22T05:14:48;12.93;;;8.40;;
38603;SDS011;24924;50.054;8.790;2022-07-22T05:17:14;13.52;;;8.18;;
38603;SDS011;24924;50.054;8.790;2022-07-22T05:19:49;13.00;;;8.18;;
38603;SDS011;24924;50.054;8.790;2022-07-22T05:22:15;11.20;;;8.17;;
38603;SDS011;24924;50.054;8.790;2022-07-22T05:24:41;12.32;;;7.93;;
38603;SDS011;24924;50.054;8.790;2022-07-22T05:27:07;12.83;;;7.63;;
38603;SDS011;24924;50.054;8.790;2022-07-22T05:29:32;12.30;;;8.05;;
38603;SDS011;24924;50.054;8.790;2022-07-22T05:31:58;11.97;;;7.47;;
38603;SDS011;24924;50.054;8.790;2022-07-22T05:34:24;11.77;;;7.22;;
38603;SDS011;24924;50.054;8.790;2022-07-22T05:36:52;12.13;;;8.00;;
38603;SDS011;24924;50.054;8.790;2022-07-22T05:39:18;11.48;;;7.35;;
38603;SDS011;24924;50.054;8.790;2022-07-22T05:41:44;12.90;;;7.68;;
38603;SDS011;24924;50.054;8.790;2022-07-22T05:44:11;12.93;;;7.80;;
38603;SDS011;24924;50.054;8.790;2022-07-22T05:46:37;14.40;;;9.00;;
38603;SDS011;24924;50.054;8.790;2022-07-22T05:49:04;13.68;;;8.70;;
38603;SDS011;24924;50.054;8.790;2022-07-22T05:51:38;13.95;;;8.48;;
38603;SDS011;24924;50.054;8.790;2022-07-22T05:54:04;14.98;;;8.38;;
38603;SDS011;24924;50.054;8.790;2022-07-22T05:56:30;14.17;;;8.93;;
38603;SDS011;24924;50.054;8.790;2022-07-22T05:58:57;13.60;;;9.25;;
38603;SDS011;24924;50.054;8.790;2022-07-22T06:01:24;14.57;;;9.43;;
38603;SDS011;24924;50.054;8.790;2022-07-22T06:03:52;14.40;;;9.05;;
38603;SDS011;24924;50.054;8.790;2022-07-22T06:06:18;13.35;;;9.85;;
38603;SDS011;24924;50.054;8.790;2022-07-22T06:08:45;14.33;;;9.50;;
38603;SDS011;24924;50.054;8.790;2022-07-22T06:11:11;13.77;;;9.48;;
38603;SDS011;24924;50.054;8.790;2022-07-22T06:13:38;15.50;;;9.73;;
38603;SDS011;24924;50.054;8.790;2022-07-22T06:16:04;13.40;;;9.40;;
38603;SDS011;24924;50.054;8.790;2022-07-22T06:18:31;13.98;;;8.60;;
38603;SDS011;24924;50.054;8.790;2022-07-22T06:20:57;12.52;;;8.50;;
38603;SDS011;24924;50.054;8.790;2022-07-22T06:23:24;11.45;;;7.45;;
38603;SDS011;24924;50.054;8.790;2022-07-22T06:25:50;11.77;;;7.17;;
38603;SDS011;24924;50.054;8.790;2022-07-22T06:28:24;11.50;;;7.65;;
38603;SDS011;24924;50.054;8.790;2022-07-22T06:30:50;12.23;;;8.18;;
38603;SDS011;24924;50.054;8.790;2022-07-22T06:33:18;11.35;;;7.38;;
38603;SDS011;24924;50.054;8.790;2022-07-22T06:35:44;12.40;;;7.73;;
38603;SDS011;24924;50.054;8.790;2022-07-22T06:38:10;11.30;;;6.88;;
38603;SDS011;24924;50.054;8.790;2022-07-22T06:41:00;11.70;;;6.97;;
38603;SDS011;24924;50.054;8.790;2022-07-22T06:43:49;9.93;;;6.57;;
38603;SDS011;24924;50.054;8.790;2022-07-22T06:46:34;10.82;;;6.70;;
38603;SDS011;24924;50.054;8.790;2022-07-22T06:49:00;10.77;;;6.43;;
38603;SDS011;24924;50.054;8.790;2022-07-22T06:51:30;10.35;;;6.00;;
38603;SDS011;24924;50.054;8.790;2022-07-22T06:53:56;10.83;;;6.97;;
38603;SDS011;24924;50.054;8.790;2022-07-22T06:56:23;9.50;;;6.60;;
38603;SDS011;24924;50.054;8.790;2022-07-22T06:58:49;9.82;;;6.63;;
38603;SDS011;24924;50.054;8.790;2022-07-22T07:01:16;9.82;;;6.20;;
38603;SDS011;24924;50.054;8.790;2022-07-22T07:03:53;10.32;;;5.95;;
38603;SDS011;24924;50.054;8.790;2022-07-22T07:06:19;9.00;;;5.83;;
38603;SDS011;24924;50.054;8.790;2022-07-22T07:09:11;8.63;;;5.50;;
38603;SDS011;24924;50.054;8.790;2022-07-22T07:11:37;8.07;;;5.65;;
38603;SDS011;24924;50.054;8.790;2022-07-22T07:14:11;10.23;;;5.88;;
38603;SDS011;24924;50.054;8.790;2022-07-22T07:16:37;7.87;;;5.60;;
38603;SDS011;24924;50.054;8.790;2022-07-22T07:19:03;10.68;;;5.55;;
38603;SDS011;24924;50.054;8.790;2022-07-22T07:21:29;8.27;;;5.40;;
38603;SDS011;24924;50.054;8.790;2022-07-22T07:23:56;9.80;;;5.35;;
38603;SDS011;24924;50.054;8.790;2022-07-22T07:26:23;9.35;;;5.40;;
38603;SDS011;24924;50.054;8.790;2022-07-22T07:28:50;8.40;;;5.33;;
38603;SDS011;24924;50.054;8.790;2022-07-22T07:31:26;8.80;;;5.03;;
38603;SDS011;24924;50.054;8.790;2022-07-22T07:33:53;8.43;;;4.95;;
38603;SDS011;24924;50.054;8.790;2022-07-22T07:36:19;8.40;;;5.20;;
38603;SDS011;24924;50.054;8.790;2022-07-22T07:38:48;8.07;;;5.18;;
38603;SDS011;24924;50.054;8.790;2022-07-22T07:41:15;8.80;;;4.60;;
38603;SDS011;24924;50.054;8.790;2022-07-22T07:43:42;7.25;;;4.78;;
38603;SDS011;24924;50.054;8.790;2022-07-22T07:46:08;7.47;;;4.60;;
38603;SDS011;24924;50.054;8.790;2022-07-22T07:48:34;7.30;;;4.68;;
38603;SDS011;24924;50.054;8.790;2022-07-22T07:51:00;7.23;;;4.53;;
38603;SDS011;24924;50.054;8.790;2022-07-22T07:53:26;6.75;;;4.28;;
38603;SDS011;24924;50.054;8.790;2022-07-22T07:55:53;6.35;;;4.07;;
38603;SDS011;24924;50.054;8.790;2022-07-22T07:58:19;7.15;;;4.60;;
38603;SDS011;24924;50.054;8.790;2022-07-22T08:00:45;8.87;;;4.40;;
38603;SDS011;24924;50.054;8.790;2022-07-22T08:03:11;9.20;;;4.50;;
38603;SDS011;24924;50.054;8.790;2022-07-22T08:05:37;7.22;;;4.40;;
38603;SDS011;24924;50.054;8.790;2022-07-22T08:08:08;6.82;;;4.13;;
38603;SDS011;24924;50.054;8.790;2022-07-22T08:10:34;7.22;;;4.22;;
38603;SDS011;24924;50.054;8.790;2022-07-22T08:13:15;7.17;;;4.03;;
38603;SDS011;24924;50.054;8.790;2022-07-22T08:15:58;6.93;;;4.18;;
38603;SDS011;24924;50.054;8.790;2022-07-22T08:18:26;5.90;;;3.85;;
38603;SDS011;24924;50.054;8.790;2022-07-22T08:20:52;6.75;;;4.10;;
38603;SDS011;24924;50.054;8.790;2022-07-22T08:23:24;8.45;;;4.47;;
38603;SDS011;24924;50.054;8.790;2022-07-22T08:25:51;7.43;;;4.60;;
38603;SDS011;24924;50.054;8.790;2022-07-22T08:28:17;7.07;;;4.07;;
38603;SDS011;24924;50.054;8.790;2022-07-22T08:30:44;7.03;;;4.10;;
38603;SDS011;24924;50.054;8.790;2022-07-22T08:33:10;8.40;;;4.13;;
38603;SDS011;24924;50.054;8.790;2022-07-22T08:35:37;6.20;;;4.05;;
38603;SDS011;24924;50.054;8.790;2022-07-22T08:38:03;6.80;;;3.97;;
38603;SDS011;24924;50.054;8.790;2022-07-22T08:40:29;7.38;;;4.82;;
38603;SDS011;24924;50.054;8.790;2022-07-22T08:42:57;7.88;;;4.30;;
38603;SDS011;24924;50.054;8.790;2022-07-22T08:45:26;7.00;;;4.68;;
38603;SDS011;24924;50.054;8.790;2022-07-22T08:47:54;7.33;;;4.23;;
38603;SDS011;24924;50.054;8.790;2022-07-22T08:50:23;7.68;;;4.43;;
38603;SDS011;24924;50.054;8.790;2022-07-22T08:53:08;6.80;;;4.22;;
38603;SDS011;24924;50.054;8.790;2022-07-22T08:55:43;7.10;;;4.50;;
38603;SDS011;24924;50.054;8.790;2022-07-22T08:58:10;8.38;;;4.10;;
38603;SDS011;24924;50.054;8.790;2022-07-22T09:00:38;8.20;;;4.50;;
38603;SDS011;24924;50.054;8.790;2022-07-22T09:03:20;6.63;;;4.07;;
38603;SDS011;24924;50.054;8.790;2022-07-22T09:05:50;10.45;;;4.07;;
38603;SDS011;24924;50.054;8.790;2022-07-22T09:08:17;6.25;;;3.88;;
38603;SDS011;24924;50.054;8.790;2022-07-22T09:11:17;5.82;;;3.90;;
38603;SDS011;24924;50.054;8.790;2022-07-22T09:14:09;7.07;;;4.23;;
38603;SDS011;24924;50.054;8.790;2022-07-22T09:16:46;6.53;;;3.90;;
38603;SDS011;24924;50.054;8.790;2022-07-22T09:19:45;7.00;;;4.05;;
38603;SDS011;24924;50.054;8.790;2022-07-22T09:22:39;7.78;;;3.72;;
38603;SDS011;24924;50.054;8.790;2022-07-22T09:30:56;6.28;;;4.05;;
38603;SDS011;24924;50.054;8.790;2022-07-22T09:33:23;7.78;;;4.10;;
38603;SDS011;24924;50.054;8.790;2022-07-22T09:36:00;7.13;;;4.20;;
38603;SDS011;24924;50.054;8.790;2022-07-22T09:38:29;7.03;;;4.20;;
38603;SDS011;24924;50.054;8.790;2022-07-22T09:40:57;7.57;;;4.50;;
38603;SDS011;24924;50.054;8.790;2022-07-22T09:43:23;6.35;;;4.00;;
38603;SDS011;24924;50.054;8.790;2022-07-22T09:45:55;7.90;;;4.00;;
38603;SDS011;24924;50.054;8.790;2022-07-22T09:48:38;6.78;;;3.92;;
38603;SDS011;24924;50.054;8.790;2022-07-22T09:51:14;6.07;;;4.05;;
38603;SDS011;24924;50.054;8.790;2022-07-22T09:53:59;8.50;;;4.10;;
38603;SDS011;24924;50.054;8.790;2022-07-22T09:56:30;7.25;;;4.30;;
38603;SDS011;24924;50.054;8.790;2022-07-22T09:58:56;7.28;;;4.30;;
38603;SDS011;24924;50.054;8.790;2022-07-22T10:01:28;9.25;;;4.25;;
38603;SDS011;24924;50.054;8.790;2022-07-22T10:03:54;7.97;;;4.50;;
38603;SDS011;24924;50.054;8.790;2022-07-22T10:06:22;6.37;;;3.80;;
38603;SDS011;24924;50.054;8.790;2022-07-22T10:08:48;6.63;;;3.85;;
38603;SDS011;24924;50.054;8.790;2022-07-22T10:11:16;7.13;;;3.97;;
38603;SDS011;24924;50.054;8.790;2022-07-22T10:13:43;7.55;;;3.92;;
38603;SDS011;24924;50.054;8.790;2022-07-22T10:16:11;6.20;;;3.90;;
38603;SDS011;24924;50.054;8.790;2022-07-22T10:18:37;7.30;;;4.30;;
38603;SDS011;24924;50.054;8.790;2022-07-22T10:21:08;6.65;;;4.43;;
38603;SDS011;24924;50.054;8.790;2022-07-22T10:23:35;7.05;;;4.13;;
38603;SDS011;24924;50.054;8.790;2022-07-22T10:26:03;6.82;;;4.38;;
38603;SDS011;24924;50.054;8.790;2022-07-22T10:28:34;7.18;;;4.22;;
38603;SDS011;24924;50.054;8.790;2022-07-22T10:33:50;6.20;;;4.10;;
38603;SDS011;24924;50.054;8.790;2022-07-22T10:39:01;5.93;;;4.20;;
38603;SDS011;24924;50.054;8.790;2022-07-22T10:41:36;6.93;;;4.20;;
38603;SDS011;24924;50.054;8.790;2022-07-22T10:44:03;6.33;;;4.10;;
38603;SDS011;24924;50.054;8.790;2022-07-22T10:49:16;6.53;;;4.22;;
38603;SDS011;24924;50.054;8.790;2022-07-22T10:54:31;6.70;;;4.57;;
38603;SDS011;24924;50.054;8.790;2022-07-22T10:56:59;6.33;;;4.20;;
38603;SDS011;24924;50.054;8.790;2022-07-22T10:59:25;8.32;;;4.38;;
38603;SDS011;24924;50.054;8.790;2022-07-22T11:01:51;6.57;;;4.07;;
38603;SDS011;24924;50.054;8.790;2022-07-22T11:04:20;7.28;;;4.20;;
38603;SDS011;24924;50.054;8.790;2022-07-22T11:06:52;9.93;;;4.50;;
38603;SDS011;24924;50.054;8.790;2022-07-22T11:09:21;7.27;;;4.27;;
38603;SDS011;24924;50.054;8.790;2022-07-22T11:11:52;7.15;;;4.10;;
38603;SDS011;24924;50.054;8.790;2022-07-22T11:14:29;6.40;;;4.13;;
38603;SDS011;24924;50.054;8.790;2022-07-22T11:16:57;7.40;;;4.43;;
38603;SDS011;24924;50.054;8.790;2022-07-22T11:19:33;7.65;;;4.20;;
38603;SDS011;24924;50.054;8.790;2022-07-22T11:22:04;5.83;;;3.87;;
38603;SDS011;24924;50.054;8.790;2022-07-22T11:24:35;6.63;;;3.90;;
38603;SDS011;24924;50.054;8.790;2022-07-22T11:27:02;7.13;;;4.07;;
38603;SDS011;24924;50.054;8.790;2022-07-22T11:29:29;6.55;;;4.18;;
38603;SDS011;24924;50.054;8.790;2022-07-22T11:31:59;6.05;;;4.38;;
38603;SDS011;24924;50.054;8.790;2022-07-22T11:34:27;6.33;;;4.00;;
38603;SDS011;24924;50.054;8.790;2022-07-22T11:36:53;7.68;;;4.60;;
38603;SDS011;24924;50.054;8.790;2022-07-22T11:39:21;6.93;;;4.60;;
38603;SDS011;24924;50.054;8.790;2022-07-22T11:41:48;6.45;;;4.00;;
38603;SDS011;24924;50.054;8.790;2022-07-22T11:44:18;6.60;;;4.30;;
38603;SDS011;24924;50.054;8.790;2022-07-22T11:46:45;6.10;;;4.07;;
38603;SDS011;24924;50.054;8.790;2022-07-22T11:49:16;9.55;;;4.70;;
38603;SDS011;24924;50.054;8.790;2022-07-22T11:51:44;7.03;;;4.50;;
38603;SDS011;24924;50.054;8.790;2022-07-22T11:54:09;6.75;;;4.20;;
38603;SDS011;24924;50.054;8.790;2022-07-22T11:56:36;6.47;;;4.50;;
38603;SDS011;24924;50.054;8.790;2022-07-22T11:59:03;8.00;;;4.60;;
38603;SDS011;24924;50.054;8.790;2022-07-22T12:01:34;7.78;;;4.85;;
38603;SDS011;24924;50.054;8.790;2022-07-22T12:04:05;7.05;;;4.38;;
38603;SDS011;24924;50.054;8.790;2022-07-22T12:06:37;6.80;;;4.35;;
38603;SDS011;24924;50.054;8.790;2022-07-22T12:09:05;7.93;;;4.70;;
38603;SDS011;24924;50.054;8.790;2022-07-22T12:11:33;6.68;;;4.25;;
38603;SDS011;24924;50.054;8.790;2022-07-22T12:14:08;6.30;;;4.55;;
38603;SDS011;24924;50.054;8.790;2022-07-22T12:16:36;7.80;;;4.40;;
38603;SDS011;24924;50.054;8.790;2022-07-22T12:19:06;6.65;;;4.38;;
38603;SDS011;24924;50.054;8.790;2022-07-22T12:21:49;6.80;;;4.63;;
38603;SDS011;24924;50.054;8.790;2022-07-22T12:24:16;7.28;;;4.40;;
38603;SDS011;24924;50.054;8.790;2022-07-22T12:26:58;6.70;;;4.50;;
38603;SDS011;24924;50.054;8.790;2022-07-22T12:32:04;6.57;;;4.53;;
38603;SDS011;24924;50.054;8.790;2022-07-22T12:34:36;6.03;;;4.20;;
38603;SDS011;24924;50.054;8.790;2022-07-22T12:37:22;6.88;;;4.80;;
38603;SDS011;24924;50.054;8.790;2022-07-22T12:40:11;10.93;;;4.65;;
38603;SDS011;24924;50.054;8.790;2022-07-22T12:42:43;8.15;;;4.78;;
38603;SDS011;24924;50.054;8.790;2022-07-22T12:45:12;7.57;;;4.70;;
38603;SDS011;24924;50.054;8.790;2022-07-22T12:47:46;6.90;;;4.20;;
38603;SDS011;24924;50.054;8.790;2022-07-22T12:55:27;8.15;;;4.63;;
38603;SDS011;24924;50.054;8.790;2022-07-22T12:57:53;6.40;;;4.70;;
38603;SDS011;24924;50.054;8.790;2022-07-22T13:00:21;6.40;;;4.50;;
38603;SDS011;24924;50.054;8.790;2022-07-22T13:02:51;6.50;;;4.40;;
38603;SDS011;24924;50.054;8.790;2022-07-22T13:05:18;6.32;;;4.78;;
38603;SDS011;24924;50.054;8.790;2022-07-22T13:07:44;7.38;;;4.72;;
38603;SDS011;24924;50.054;8.790;2022-07-22T13:10:10;6.22;;;4.50;;
38603;SDS011;24924;50.054;8.790;2022-07-22T13:12:37;6.57;;;4.20;;
38603;SDS011;24924;50.054;8.790;2022-07-22T13:15:03;8.18;;;4.20;;
38603;SDS011;24924;50.054;8.790;2022-07-22T13:17:29;7.40;;;4.38;;
38603;SDS011;24924;50.054;8.790;2022-07-22T13:19:56;6.82;;;4.55;;
38603;SDS011;24924;50.054;8.790;2022-07-22T13:22:22;6.40;;;4.25;;
38603;SDS011;24924;50.054;8.790;2022-07-22T13:24:48;7.57;;;4.47;;
38603;SDS011;24924;50.054;8.790;2022-07-22T13:27:14;6.32;;;4.32;;
38603;SDS011;24924;50.054;8.790;2022-07-22T13:29:40;7.25;;;4.22;;
38603;SDS011;24924;50.054;8.790;2022-07-22T13:32:06;9.55;;;5.90;;
38603;SDS011;24924;50.054;8.790;2022-07-22T13:34:32;8.27;;;5.03;;
38603;SDS011;24924;50.054;8.790;2022-07-22T13:36:59;8.93;;;4.65;;
38603;SDS011;24924;50.054;8.790;2022-07-22T13:39:25;6.60;;;4.30;;
38603;SDS011;24924;50.054;8.790;2022-07-22T13:41:51;7.35;;;4.50;;
38603;SDS011;24924;50.054;8.790;2022-07-22T13:44:18;5.97;;;4.50;;
38603;SDS011;24924;50.054;8.790;2022-07-22T13:46:44;7.53;;;4.63;;
38603;SDS011;24924;50.054;8.790;2022-07-22T13:49:11;7.65;;;4.45;;
38603;SDS011;24924;50.054;8.790;2022-07-22T13:51:37;6.18;;;4.50;;
38603;SDS011;24924;50.054;8.790;2022-07-22T13:54:02;6.97;;;4.60;;
38603;SDS011;24924;50.054;8.790;2022-07-22T13:56:30;7.45;;;4.72;;
38603;SDS011;24924;50.054;8.790;2022-07-22T13:58:57;6.72;;;4.60;;
38603;SDS011;24924;50.054;8.790;2022-07-22T14:01:24;6.97;;;4.85;;
38603;SDS011;24924;50.054;8.790;2022-07-22T14:03:50;8.50;;;5.00;;
38603;SDS011;24924;50.054;8.790;2022-07-22T14:06:17;7.50;;;4.70;;
38603;SDS011;24924;50.054;8.790;2022-07-22T14:08:42;8.63;;;4.57;;
38603;SDS011;24924;50.054;8.790;2022-07-22T14:11:09;7.25;;;4.80;;
38603;SDS011;24924;50.054;8.790;2022-07-22T14:13:35;6.75;;;4.78;;
38603;SDS011;24924;50.054;8.790;2022-07-22T14:16:01;6.95;;;4.65;;
38603;SDS011;24924;50.054;8.790;2022-07-22T14:18:46;7.50;;;4.27;;
38603;SDS011;24924;50.054;8.790;2022-07-22T14:21:12;7.50;;;4.45;;
38603;SDS011;24924;50.054;8.790;2022-07-22T14:23:39;7.40;;;4.57;;
38603;SDS011;24924;50.054;8.790;2022-07-22T14:26:05;7.28;;;4.72;;
38603;SDS011;24924;50.054;8.790;2022-07-22T14:28:31;8.25;;;4.35;;
38603;SDS011;24924;50.054;8.790;2022-07-22T14:30:57;7.60;;;4.80;;
38603;SDS011;24924;50.054;8.790;2022-07-22T14:33:24;8.35;;;4.43;;
38603;SDS011;24924;50.054;8.790;2022-07-22T14:35:49;6.53;;;4.10;;
38603;SDS011;24924;50.054;8.790;2022-07-22T14:38:16;6.73;;;4.47;;
38603;SDS011;24924;50.054;8.790;2022-07-22T14:40:43;7.75;;;4.28;;
38603;SDS011;24924;50.054;8.790;2022-07-22T14:43:08;7.22;;;4.30;;
38603;SDS011;24924;50.054;8.790;2022-07-22T14:45:34;6.13;;;4.30;;
38603;SDS011;24924;50.054;8.790;2022-07-22T14:48:00;9.23;;;4.60;;
38603;SDS011;24924;50.054;8.790;2022-07-22T14:50:26;7.75;;;4.30;;
38603;SDS011;24924;50.054;8.790;2022-07-22T14:52:52;6.07;;;4.10;;
38603;SDS011;24924;50.054;8.790;2022-07-22T14:55:18;7.67;;;3.93;;
38603;SDS011;24924;50.054;8.790;2022-07-22T14:57:44;6.95;;;4.05;;
38603;SDS011;24924;50.054;8.790;2022-07-22T15:00:10;6.07;;;4.10;;
38603;SDS011;24924;50.054;8.790;2022-07-22T15:02:36;6.95;;;4.10;;
38603;SDS011;24924;50.054;8.790;2022-07-22T15:05:02;7.70;;;4.30;;
38603;SDS011;24924;50.054;8.790;2022-07-22T15:07:28;7.72;;;4.35;;
38603;SDS011;24924;50.054;8.790;2022-07-22T15:09:54;6.87;;;4.23;;
38603;SDS011;24924;50.054;8.790;2022-07-22T15:12:20;5.88;;;3.75;;
38603;SDS011;24924;50.054;8.790;2022-07-22T15:14:46;5.65;;;3.88;;
38603;SDS011;24924;50.054;8.790;2022-07-22T15:17:11;6.77;;;4.13;;
38603;SDS011;24924;50.054;8.790;2022-07-22T15:19:37;5.78;;;4.07;;
38603;SDS011;24924;50.054;8.790;2022-07-22T15:22:03;7.45;;;4.03;;
38603;SDS011;24924;50.054;8.790;2022-07-22T15:24:29;6.87;;;4.33;;
38603;SDS011;24924;50.054;8.790;2022-07-22T15:26:55;8.10;;;4.90;;
38603;SDS011;24924;50.054;8.790;2022-07-22T15:29:21;6.85;;;4.03;;
38603;SDS011;24924;50.054;8.790;2022-07-22T15:31:48;7.63;;;4.10;;
38603;SDS011;24924;50.054;8.790;2022-07-22T15:34:14;7.47;;;4.18;;
38603;SDS011;24924;50.054;8.790;2022-07-22T15:36:40;6.10;;;4.00;;
38603;SDS011;24924;50.054;8.790;2022-07-22T15:39:06;5.43;;;4.03;;
38603;SDS011;24924;50.054;8.790;2022-07-22T15:41:32;6.93;;;3.80;;
38603;SDS011;24924;50.054;8.790;2022-07-22T15:44:04;7.70;;;4.25;;
38603;SDS011;24924;50.054;8.790;2022-07-22T15:46:31;5.43;;;3.80;;
38603;SDS011;24924;50.054;8.790;2022-07-22T15:48:57;6.55;;;4.00;;
38603;SDS011;24924;50.054;8.790;2022-07-22T15:51:23;8.15;;;3.90;;
38603;SDS011;24924;50.054;8.790;2022-07-22T15:53:49;7.32;;;4.00;;
38603;SDS011;24924;50.054;8.790;2022-07-22T15:56:15;5.63;;;3.60;;
38603;SDS011;24924;50.054;8.790;2022-07-22T15:58:44;6.37;;;3.97;;
38603;SDS011;24924;50.054;8.790;2022-07-22T16:01:29;6.72;;;3.80;;
38603;SDS011;24924;50.054;8.790;2022-07-22T16:03:55;8.43;;;3.92;;
38603;SDS011;24924;50.054;8.790;2022-07-22T16:06:21;6.10;;;3.80;;
38603;SDS011;24924;50.054;8.790;2022-07-22T16:08:47;7.00;;;4.13;;
38603;SDS011;24924;50.054;8.790;2022-07-22T16:11:14;5.87;;;3.90;;
38603;SDS011;24924;50.054;8.790;2022-07-22T16:13:40;5.70;;;4.00;;
38603;SDS011;24924;50.054;8.790;2022-07-22T16:16:06;5.70;;;4.03;;
38603;SDS011;24924;50.054;8.790;2022-07-22T16:18:32;6.55;;;4.13;;
38603;SDS011;24924;50.054;8.790;2022-07-22T16:20:58;6.15;;;4.18;;
38603;SDS011;24924;50.054;8.790;2022-07-22T16:23:24;7.43;;;4.23;;
38603;SDS011;24924;50.054;8.790;2022-07-22T16:25:50;7.28;;;3.70;;
38603;SDS011;24924;50.054;8.790;2022-07-22T16:28:15;7.83;;;4.33;;
38603;SDS011;24924;50.054;8.790;2022-07-22T16:30:41;6.67;;;4.00;;
38603;SDS011;24924;50.054;8.790;2022-07-22T16:33:08;6.43;;;4.15;;
38603;SDS011;24924;50.054;8.790;2022-07-22T16:35:33;7.93;;;4.25;;
38603;SDS011;24924;50.054;8.790;2022-07-22T16:38:00;6.50;;;3.92;;
38603;SDS011;24924;50.054;8.790;2022-07-22T16:40:26;7.95;;;4.45;;
38603;SDS011;24924;50.054;8.790;2022-07-22T16:42:52;6.30;;;4.03;;
38603;SDS011;24924;50.054;8.790;2022-07-22T16:45:18;7.70;;;4.20;;
38603;SDS011;24924;50.054;8.790;2022-07-22T16:47:44;5.82;;;3.55;;
38603;SDS011;24924;50.054;8.790;2022-07-22T16:50:11;6.20;;;4.10;;
38603;SDS011;24924;50.054;8.790;2022-07-22T16:52:37;9.77;;;4.20;;
38603;SDS011;24924;50.054;8.790;2022-07-22T16:55:03;6.28;;;4.07;;
38603;SDS011;24924;50.054;8.790;2022-07-22T16:57:29;10.27;;;4.00;;
38603;SDS011;24924;50.054;8.790;2022-07-22T16:59:55;7.70;;;3.92;;
38603;SDS011;24924;50.054;8.790;2022-07-22T17:02:21;6.63;;;4.10;;
38603;SDS011;24924;50.054;8.790;2022-07-22T17:04:47;8.32;;;3.90;;
38603;SDS011;24924;50.054;8.790;2022-07-22T17:07:13;6.43;;;4.03;;
38603;SDS011;24924;50.054;8.790;2022-07-22T17:09:39;11.27;;;4.10;;
38603;SDS011;24924;50.054;8.790;2022-07-22T17:12:05;7.13;;;4.00;;
38603;SDS011;24924;50.054;8.790;2022-07-22T17:14:32;7.13;;;4.20;;
38603;SDS011;24924;50.054;8.790;2022-07-22T17:16:58;8.27;;;4.35;;
38603;SDS011;24924;50.054;8.790;2022-07-22T17:19:24;7.57;;;4.30;;
38603;SDS011;24924;50.054;8.790;2022-07-22T17:21:50;7.73;;;4.20;;
38603;SDS011;24924;50.054;8.790;2022-07-22T17:24:16;9.98;;;4.63;;
38603;SDS011;24924;50.054;8.790;2022-07-22T17:26:42;7.90;;;4.63;;
38603;SDS011;24924;50.054;8.790;2022-07-22T17:29:08;7.15;;;4.63;;
38603;SDS011;24924;50.054;8.790;2022-07-22T17:31:34;6.80;;;4.57;;
38603;SDS011;24924;50.054;8.790;2022-07-22T17:34:00;8.75;;;4.80;;
38603;SDS011;24924;50.054;8.790;2022-07-22T17:36:26;9.02;;;4.78;;
38603;SDS011;24924;50.054;8.790;2022-07-22T17:38:52;8.00;;;4.68;;
38603;SDS011;24924;50.054;8.790;2022-07-22T17:41:21;7.28;;;4.82;;
38603;SDS011;24924;50.054;8.790;2022-07-22T17:43:48;6.17;;;4.40;;
38603;SDS011;24924;50.054;8.790;2022-07-22T17:46:15;7.20;;;4.70;;
38603;SDS011;24924;50.054;8.790;2022-07-22T17:48:41;8.00;;;4.90;;
38603;SDS011;24924;50.054;8.790;2022-07-22T17:51:09;8.35;;;4.78;;
38603;SDS011;24924;50.054;8.790;2022-07-22T17:53:36;7.80;;;4.70;;
38603;SDS011;24924;50.054;8.790;2022-07-22T17:56:03;8.38;;;4.50;;
38603;SDS011;24924;50.054;8.790;2022-07-22T17:58:29;9.88;;;5.10;;
38603;SDS011;24924;50.054;8.790;2022-07-22T18:00:55;7.82;;;4.82;;
38603;SDS011;24924;50.054;8.790;2022-07-22T18:03:20;8.43;;;5.00;;
38603;SDS011;24924;50.054;8.790;2022-07-22T18:05:49;9.23;;;5.05;;
38603;SDS011;24924;50.054;8.790;2022-07-22T18:08:17;8.20;;;5.22;;
38603;SDS011;24924;50.054;8.790;2022-07-22T18:10:46;7.70;;;4.97;;
38603;SDS011;24924;50.054;8.790;2022-07-22T18:13:13;8.45;;;5.50;;
38603;SDS011;24924;50.054;8.790;2022-07-22T18:15:40;10.13;;;5.63;;
38603;SDS011;24924;50.054;8.790;2022-07-22T18:18:07;8.20;;;5.22;;
38603;SDS011;24924;50.054;8.790;2022-07-22T18:20:32;8.27;;;5.00;;
38603;SDS011;24924;50.054;8.790;2022-07-22T18:22:59;7.68;;;5.00;;
38603;SDS011;24924;50.054;8.790;2022-07-22T18:25:25;7.43;;;5.10;;
38603;SDS011;24924;50.054;8.790;2022-07-22T18:27:52;8.70;;;4.90;;
38603;SDS011;24924;50.054;8.790;2022-07-22T18:30:18;10.90;;;5.90;;
38603;SDS011;24924;50.054;8.790;2022-07-22T18:32:44;8.13;;;5.30;;
38603;SDS011;24924;50.054;8.790;2022-07-22T18:35:11;9.68;;;5.60;;
38603;SDS011;24924;50.054;8.790;2022-07-22T18:37:36;9.73;;;5.47;;
38603;SDS011;24924;50.054;8.790;2022-07-22T18:40:03;9.55;;;6.05;;
38603;SDS011;24924;50.054;8.790;2022-07-22T18:42:29;8.43;;;5.50;;
38603;SDS011;24924;50.054;8.790;2022-07-22T18:44:55;9.40;;;5.23;;
38603;SDS011;24924;50.054;8.790;2022-07-22T18:47:21;9.45;;;5.13;;
38603;SDS011;24924;50.054;8.790;2022-07-22T18:49:47;7.13;;;4.88;;
38603;SDS011;24924;50.054;8.790;2022-07-22T18:52:13;8.52;;;5.15;;
38603;SDS011;24924;50.054;8.790;2022-07-22T18:54:39;9.63;;;5.40;;
38603;SDS011;24924;50.054;8.790;2022-07-22T18:57:05;9.50;;;5.32;;
38603;SDS011;24924;50.054;8.790;2022-07-22T18:59:31;8.73;;;5.57;;
38603;SDS011;24924;50.054;8.790;2022-07-22T19:01:58;8.52;;;5.80;;
38603;SDS011;24924;50.054;8.790;2022-07-22T19:04:24;9.75;;;5.50;;
38603;SDS011;24924;50.054;8.790;2022-07-22T19:06:50;7.83;;;5.27;;
38603;SDS011;24924;50.054;8.790;2022-07-22T19:09:16;10.52;;;5.50;;
38603;SDS011;24924;50.054;8.790;2022-07-22T19:11:42;8.32;;;5.88;;
38603;SDS011;24924;50.054;8.790;2022-07-22T19:14:08;8.55;;;5.70;;
38603;SDS011;24924;50.054;8.790;2022-07-22T19:16:34;7.33;;;5.10;;
38603;SDS011;24924;50.054;8.790;2022-07-22T19:19:00;9.35;;;5.25;;
38603;SDS011;24924;50.054;8.790;2022-07-22T19:21:27;8.88;;;5.32;;
38603;SDS011;24924;50.054;8.790;2022-07-22T19:23:54;7.20;;;5.00;;
38603;SDS011;24924;50.054;8.790;2022-07-22T19:26:20;8.25;;;5.50;;
38603;SDS011;24924;50.054;8.790;2022-07-22T19:28:46;9.43;;;5.38;;
38603;SDS011;24924;50.054;8.790;2022-07-22T19:31:12;8.30;;;5.43;;
38603;SDS011;24924;50.054;8.790;2022-07-22T19:33:38;7.72;;;5.38;;
38603;SDS011;24924;50.054;8.790;2022-07-22T19:36:04;11.03;;;5.70;;
38603;SDS011;24924;50.054;8.790;2022-07-22T19:38:31;10.30;;;5.82;;
38603;SDS011;24924;50.054;8.790;2022-07-22T19:40:56;9.43;;;5.28;;
38603;SDS011;24924;50.054;8.790;2022-07-22T19:43:23;10.35;;;5.57;;
38603;SDS011;24924;50.054;8.790;2022-07-22T19:45:49;9.80;;;5.70;;
38603;SDS011;24924;50.054;8.790;2022-07-22T19:48:15;9.80;;;5.35;;
38603;SDS011;24924;50.054;8.790;2022-07-22T19:50:41;8.88;;;5.50;;
38603;SDS011;24924;50.054;8.790;2022-07-22T19:53:07;7.73;;;5.53;;
38603;SDS011;24924;50.054;8.790;2022-07-22T19:55:33;8.35;;;5.53;;
38603;SDS011;24924;50.054;8.790;2022-07-22T19:57:59;12.32;;;5.88;;
38603;SDS011;24924;50.054;8.790;2022-07-22T20:00:26;9.45;;;6.40;;
38603;SDS011;24924;50.054;8.790;2022-07-22T20:02:52;12.38;;;8.63;;
38603;SDS011;24924;50.054;8.790;2022-07-22T20:05:19;9.73;;;7.17;;
38603;SDS011;24924;50.054;8.790;2022-07-22T20:07:45;11.75;;;7.22;;
38603;SDS011;24924;50.054;8.790;2022-07-22T20:10:11;10.15;;;6.32;;
38603;SDS011;24924;50.054;8.790;2022-07-22T20:12:37;9.07;;;6.72;;
38603;SDS011;24924;50.054;8.790;2022-07-22T20:15:03;12.03;;;7.43;;
38603;SDS011;24924;50.054;8.790;2022-07-22T20:17:29;12.18;;;9.23;;